createdAt,value
2018-08-03T00:01:46.020Z,24.64
2018-08-03T00:04:13.877Z,24.55
2018-08-03T00:06:41.749Z,24.59
2018-08-03T00:09:10.019Z,24.50
2018-08-03T00:11:38.417Z,24.46
2018-08-03T00:14:06.272Z,24.38
2018-08-03T00:16:34.123Z,24.34
2018-08-03T00:19:02.013Z,24.32
2018-08-03T00:21:29.943Z,24.35
2018-08-03T00:23:58.051Z,24.29
2018-08-03T00:26:25.846Z,24.29
2018-08-03T00:28:53.696Z,24.19
2018-08-03T00:31:21.820Z,24.17
2018-08-03T00:33:49.623Z,24.16
2018-08-03T00:36:17.648Z,24.18
2018-08-03T00:38:45.720Z,24.05
2018-08-03T00:41:13.580Z,24.06
2018-08-03T00:43:41.479Z,24.01
2018-08-03T00:46:09.300Z,24.01
2018-08-03T00:48:37.127Z,23.92
2018-08-03T00:51:05.057Z,23.99
2018-08-03T00:53:32.839Z,23.91
2018-08-03T00:56:00.662Z,23.96
2018-08-03T00:58:28.435Z,23.94
2018-08-03T01:00:56.159Z,23.88
2018-08-03T01:03:24.026Z,23.82
2018-08-03T01:05:52.066Z,23.81
2018-08-03T01:08:19.782Z,23.75
2018-08-03T01:10:47.661Z,23.76
2018-08-03T01:13:15.499Z,23.76
2018-08-03T01:15:43.301Z,23.67
2018-08-03T01:18:11.115Z,23.73
2018-08-03T01:20:38.927Z,23.64
2018-08-03T01:23:06.696Z,23.65
2018-08-03T01:25:34.471Z,23.60
2018-08-03T01:28:02.263Z,23.58
2018-08-03T01:30:30.155Z,23.58
2018-08-03T01:32:57.920Z,23.49
2018-08-03T01:35:25.824Z,23.46
2018-08-03T01:37:53.654Z,23.43
2018-08-03T01:40:21.524Z,23.38
2018-08-03T01:42:49.343Z,23.41
2018-08-03T01:45:17.107Z,23.49
2018-08-03T01:47:44.911Z,23.34
2018-08-03T01:50:12.665Z,23.35
2018-08-03T01:52:40.481Z,23.37
2018-08-03T01:55:08.226Z,23.32
2018-08-03T01:57:36.064Z,23.29
2018-08-03T02:00:04.266Z,23.24
2018-08-03T02:02:32.143Z,23.22
2018-08-03T02:05:00.628Z,23.23
2018-08-03T02:07:28.463Z,23.17
2018-08-03T02:09:56.344Z,23.21
2018-08-03T02:12:24.195Z,23.22
2018-08-03T02:14:52.076Z,23.19
2018-08-03T02:17:19.931Z,23.14
2018-08-03T02:19:47.787Z,23.07
2018-08-03T02:22:15.714Z,23.01
2018-08-03T02:24:43.565Z,23.02
2018-08-03T02:27:11.428Z,23.01
2018-08-03T02:29:39.270Z,22.99
2018-08-03T02:32:07.155Z,22.96
2018-08-03T02:34:34.957Z,22.93
2018-08-03T02:37:02.747Z,22.89
2018-08-03T02:39:30.547Z,22.95
2018-08-03T02:41:58.348Z,22.90
2018-08-03T02:44:26.112Z,22.85
2018-08-03T02:46:53.939Z,22.81
2018-08-03T02:49:21.763Z,22.78
2018-08-03T02:51:49.526Z,22.70
2018-08-03T02:54:17.333Z,22.77
2018-08-03T02:56:45.111Z,22.77
2018-08-03T02:59:12.928Z,22.73
2018-08-03T03:01:40.768Z,22.75
2018-08-03T03:04:08.860Z,22.74
2018-08-03T03:06:36.680Z,22.67
2018-08-03T03:09:08.419Z,22.65
2018-08-03T03:11:36.390Z,22.52
2018-08-03T03:14:04.390Z,22.56
2018-08-03T03:16:32.211Z,22.56
2018-08-03T03:19:00.275Z,22.48
2018-08-03T03:21:28.111Z,22.40
2018-08-03T03:23:55.907Z,22.38
2018-08-03T03:26:23.755Z,22.31
2018-08-03T03:28:51.651Z,22.25
2018-08-03T03:31:19.405Z,22.26
2018-08-03T03:33:47.249Z,22.21
2018-08-03T03:36:15.033Z,22.15
2018-08-03T03:38:42.827Z,22.23
2018-08-03T03:41:10.725Z,22.14
2018-08-03T03:43:38.504Z,22.17
2018-08-03T03:46:06.927Z,22.11
2018-08-03T03:48:34.759Z,22.01
2018-08-03T03:51:02.630Z,22.05
2018-08-03T03:53:30.467Z,22.02
2018-08-03T03:55:58.294Z,21.99
2018-08-03T03:58:26.107Z,21.94
2018-08-03T04:00:53.958Z,22.00
2018-08-03T04:03:21.817Z,21.91
2018-08-03T04:05:49.725Z,21.92
2018-08-03T04:08:17.498Z,21.99
2018-08-03T04:10:45.367Z,22.01
2018-08-03T04:13:13.151Z,21.98
2018-08-03T04:15:41.003Z,21.92
2018-08-03T04:20:38.135Z,21.93
2018-08-03T04:23:06.482Z,21.94
2018-08-03T04:25:34.285Z,21.91
2018-08-03T04:28:02.044Z,21.96
2018-08-03T04:30:29.834Z,21.91
2018-08-03T04:32:57.676Z,21.98
2018-08-03T04:35:25.553Z,21.93
2018-08-03T04:37:53.360Z,21.93
2018-08-03T04:40:21.202Z,22.02
2018-08-03T04:42:49.018Z,22.01
2018-08-03T04:45:16.840Z,22.05
2018-08-03T04:47:44.632Z,22.05
2018-08-03T04:50:12.420Z,22.14
2018-08-03T04:52:40.235Z,22.16
2018-08-03T04:55:08.532Z,22.21
2018-08-03T04:57:36.339Z,22.25
2018-08-03T05:00:04.704Z,22.31
2018-08-03T05:02:32.531Z,22.33
2018-08-03T05:05:00.341Z,22.39
2018-08-03T05:07:28.109Z,22.45
2018-08-03T05:09:55.858Z,22.52
2018-08-03T05:12:23.683Z,22.58
2018-08-03T05:14:51.496Z,22.67
2018-08-03T05:17:19.335Z,22.75
2018-08-03T05:19:47.171Z,22.85
2018-08-03T05:22:15.047Z,22.94
2018-08-03T05:24:42.845Z,23.04
2018-08-03T05:27:10.608Z,23.45
2018-08-03T05:29:38.372Z,23.92
2018-08-03T05:32:06.306Z,24.42
2018-08-03T05:34:34.146Z,24.66
2018-08-03T05:37:02.311Z,25.13
2018-08-03T05:39:30.163Z,25.29
2018-08-03T05:41:58.019Z,25.40
2018-08-03T05:44:25.873Z,25.51
2018-08-03T05:46:53.620Z,25.79
2018-08-03T05:49:21.511Z,25.80
2018-08-03T05:51:49.371Z,26.17
2018-08-03T05:54:17.169Z,26.26
2018-08-03T05:56:45.052Z,26.43
2018-08-03T05:59:13.043Z,26.65
2018-08-03T06:01:40.961Z,26.85
2018-08-03T06:04:12.475Z,26.85
2018-08-03T06:06:40.329Z,26.93
2018-08-03T06:09:09.488Z,26.91
2018-08-03T06:11:37.423Z,26.97
2018-08-03T06:14:06.062Z,27.00
2018-08-03T06:16:33.968Z,26.83
2018-08-03T06:19:02.116Z,26.68
2018-08-03T06:21:30.795Z,26.64
2018-08-03T06:23:58.826Z,26.94
2018-08-03T06:26:26.671Z,27.05
2018-08-03T06:28:54.672Z,26.98
2018-08-03T06:31:22.522Z,26.89
2018-08-03T06:33:50.519Z,27.00
2018-08-03T06:36:18.392Z,27.10
2018-08-03T06:38:46.349Z,27.28
2018-08-03T06:41:14.236Z,27.29
2018-08-03T06:43:42.168Z,27.37
2018-08-03T06:46:10.722Z,27.34
2018-08-03T06:48:38.511Z,27.40
2018-08-03T06:51:06.647Z,27.42
2018-08-03T06:53:34.692Z,27.51
2018-08-03T06:56:02.695Z,27.60
2018-08-03T06:58:30.588Z,27.64
2018-08-03T07:00:58.856Z,27.71
2018-08-03T07:03:26.764Z,27.80
2018-08-03T07:05:54.715Z,27.89
2018-08-03T07:08:22.699Z,27.98
2018-08-03T07:10:50.526Z,28.02
2018-08-03T07:13:18.332Z,28.04
2018-08-03T07:15:46.132Z,28.07
2018-08-03T07:18:14.160Z,28.06
2018-08-03T07:20:42.088Z,28.25
2018-08-03T07:23:09.833Z,28.45
2018-08-03T07:25:37.670Z,28.55
2018-08-03T07:28:05.630Z,28.62
2018-08-03T07:30:33.455Z,28.65
2018-08-03T07:33:01.356Z,28.74
2018-08-03T07:35:29.109Z,28.76
2018-08-03T07:37:57.007Z,28.83
2018-08-03T07:40:24.775Z,28.84
2018-08-03T07:42:52.573Z,28.91
2018-08-03T07:45:20.391Z,28.91
2018-08-03T07:47:48.244Z,28.96
2018-08-03T07:50:16.032Z,28.97
2018-08-03T07:52:43.880Z,29.01
2018-08-03T07:55:11.761Z,29.04
2018-08-03T07:57:39.544Z,29.03
2018-08-03T08:00:07.455Z,29.08
2018-08-03T08:02:35.255Z,29.18
2018-08-03T08:05:03.131Z,29.26
2018-08-03T08:07:30.919Z,29.42
2018-08-03T08:09:58.816Z,29.54
2018-08-03T08:12:26.627Z,29.52
2018-08-03T08:14:54.472Z,29.56
2018-08-03T08:17:22.320Z,29.62
2018-08-03T08:19:50.036Z,29.60
2018-08-03T08:22:17.864Z,29.69
2018-08-03T08:24:45.662Z,29.85
2018-08-03T08:27:13.551Z,29.89
2018-08-03T08:29:41.381Z,29.88
2018-08-03T08:32:09.229Z,29.99
2018-08-03T08:34:37.071Z,30.07
2018-08-03T08:37:05.274Z,30.10
2018-08-03T08:39:33.055Z,30.15
2018-08-03T08:42:00.916Z,30.28
2018-08-03T08:44:28.851Z,30.63
2018-08-03T08:46:56.629Z,30.71
2018-08-03T08:49:24.404Z,30.66
2018-08-03T08:51:52.235Z,30.72
2018-08-03T08:54:20.050Z,30.76
2018-08-03T08:56:47.840Z,30.89
2018-08-03T08:59:15.674Z,30.94
2018-08-03T09:01:43.535Z,31.05
2018-08-03T09:04:11.347Z,31.05
2018-08-03T09:06:39.192Z,31.04
2018-08-03T09:09:09.245Z,31.12
2018-08-03T09:11:37.600Z,31.07
2018-08-03T09:14:05.599Z,31.18
2018-08-03T09:16:33.439Z,31.23
2018-08-03T09:19:01.284Z,31.16
2018-08-03T09:21:29.125Z,31.20
2018-08-03T09:23:56.990Z,31.17
2018-08-03T09:26:24.813Z,31.25
2018-08-03T09:28:52.671Z,31.24
2018-08-03T09:31:20.424Z,31.31
2018-08-03T09:33:48.342Z,31.33
2018-08-03T09:36:16.184Z,31.36
2018-08-03T09:38:44.013Z,31.33
2018-08-03T09:41:11.866Z,31.41
2018-08-03T09:43:39.683Z,31.46
2018-08-03T09:46:07.543Z,31.57
2018-08-03T09:48:35.427Z,31.63
2018-08-03T09:51:03.245Z,31.65
2018-08-03T09:53:31.055Z,31.93
2018-08-03T09:55:58.824Z,31.97
2018-08-03T09:58:26.695Z,32.27
2018-08-03T10:00:55.975Z,32.55
2018-08-03T10:03:24.427Z,33.01
2018-08-03T10:05:52.244Z,33.13
2018-08-03T10:08:20.195Z,33.56
2018-08-03T10:10:48.208Z,33.58
2018-08-03T10:13:16.475Z,33.79
2018-08-03T10:15:44.307Z,33.93
2018-08-03T10:18:12.155Z,33.94
2018-08-03T10:20:40.073Z,34.05
2018-08-03T10:23:08.163Z,34.13
2018-08-03T10:25:35.890Z,34.37
2018-08-03T10:28:03.751Z,34.54
2018-08-03T10:30:31.551Z,34.45
2018-08-03T10:32:59.287Z,34.78
2018-08-03T10:35:27.191Z,35.22
2018-08-03T10:37:54.976Z,35.77
2018-08-03T10:40:22.927Z,36.29
2018-08-03T10:42:50.836Z,36.89
2018-08-03T10:45:18.599Z,37.52
2018-08-03T10:47:46.378Z,37.83
2018-08-03T10:50:14.927Z,38.41
2018-08-03T10:52:42.956Z,38.72
2018-08-03T10:55:10.840Z,39.70
2018-08-03T10:57:38.699Z,40.68
2018-08-03T11:00:07.859Z,41.12
2018-08-03T11:02:35.699Z,41.68
2018-08-03T11:05:03.739Z,42.30
2018-08-03T11:07:31.491Z,42.38
2018-08-03T11:09:59.343Z,43.16
2018-08-03T11:12:27.143Z,43.41
2018-08-03T11:14:54.962Z,43.95
2018-08-03T11:17:22.832Z,44.34
2018-08-03T11:19:50.620Z,44.69
2018-08-03T11:22:18.471Z,44.94
2018-08-03T11:24:46.367Z,44.73
2018-08-03T11:27:14.173Z,44.46
2018-08-03T11:29:42.023Z,44.77
2018-08-03T11:32:09.887Z,45.37
2018-08-03T11:34:37.707Z,45.17
2018-08-03T11:37:05.641Z,45.49
2018-08-03T11:39:33.453Z,45.58
2018-08-03T11:42:01.623Z,45.68
2018-08-03T11:44:29.400Z,45.59
2018-08-03T11:46:57.219Z,45.77
2018-08-03T11:49:25.039Z,46.05
2018-08-03T11:51:52.828Z,46.31
2018-08-03T11:54:20.670Z,46.43
2018-08-03T11:56:48.471Z,46.59
2018-08-03T11:59:16.269Z,46.55
2018-08-03T12:01:44.098Z,46.18
2018-08-03T12:04:11.983Z,46.15
2018-08-03T12:06:39.806Z,46.15
2018-08-03T12:09:07.958Z,46.33
2018-08-03T12:11:36.011Z,46.28
2018-08-03T12:14:03.883Z,46.21
2018-08-03T12:16:31.756Z,46.03
2018-08-03T12:18:59.751Z,46.18
2018-08-03T12:21:27.638Z,46.19
2018-08-03T12:23:55.570Z,45.65
2018-08-03T12:26:23.339Z,46.34
2018-08-03T12:28:51.119Z,46.56
2018-08-03T12:31:18.981Z,46.59
2018-08-03T12:33:46.686Z,46.76
2018-08-03T12:36:14.655Z,46.83
2018-08-03T12:38:42.495Z,46.71
2018-08-03T12:41:10.251Z,46.71
2018-08-03T12:43:38.193Z,46.65
2018-08-03T12:46:06.249Z,46.32
2018-08-03T12:48:34.012Z,45.89
2018-08-03T12:51:01.955Z,45.16
2018-08-03T12:53:29.727Z,44.54
2018-08-03T12:55:57.679Z,44.50
2018-08-03T12:58:25.719Z,44.30
2018-08-03T13:00:53.535Z,44.23
2018-08-03T13:03:21.355Z,44.19
2018-08-03T13:05:49.156Z,44.28
2018-08-03T13:08:17.043Z,44.09
2018-08-03T13:10:45.095Z,43.98
2018-08-03T13:13:12.868Z,43.82
2018-08-03T13:15:40.715Z,43.80
2018-08-03T13:18:08.903Z,43.90
2018-08-03T13:20:36.969Z,43.84
2018-08-03T13:23:05.007Z,43.71
2018-08-03T13:25:32.814Z,43.50
2018-08-03T13:28:00.958Z,43.39
2018-08-03T13:30:28.754Z,43.29
2018-08-03T13:32:56.523Z,43.20
2018-08-03T13:35:24.452Z,43.08
2018-08-03T13:37:52.330Z,42.93
2018-08-03T13:40:20.192Z,42.51
2018-08-03T13:42:48.273Z,42.04
2018-08-03T13:45:16.132Z,41.95
2018-08-03T13:47:44.018Z,41.38
2018-08-03T13:50:11.909Z,41.16
2018-08-03T13:52:39.788Z,40.77
2018-08-03T13:55:07.622Z,40.71
2018-08-03T13:57:35.551Z,40.59
2018-08-03T14:00:05.373Z,40.79
2018-08-03T14:02:33.938Z,40.74
2018-08-03T14:05:01.734Z,40.49
2018-08-03T14:07:29.795Z,40.42
2018-08-03T14:09:57.765Z,40.19
2018-08-03T14:12:25.600Z,40.08
2018-08-03T14:14:54.011Z,39.98
2018-08-03T14:17:21.853Z,39.87
2018-08-03T14:19:49.738Z,39.45
2018-08-03T14:22:17.580Z,39.39
2018-08-03T14:24:45.371Z,39.50
2018-08-03T14:27:13.211Z,39.50
2018-08-03T14:29:40.957Z,39.47
2018-08-03T14:32:08.971Z,39.36
2018-08-03T14:34:36.759Z,39.22
2018-08-03T14:37:04.705Z,39.16
2018-08-03T14:39:32.579Z,39.07
2018-08-03T14:42:00.427Z,39.05
2018-08-03T14:44:28.304Z,38.85
2018-08-03T14:46:56.036Z,38.69
2018-08-03T14:49:23.874Z,38.35
2018-08-03T14:51:51.754Z,38.27
2018-08-03T14:54:19.651Z,38.19
2018-08-03T14:56:47.454Z,37.92
2018-08-03T14:59:15.223Z,37.81
2018-08-03T15:01:43.087Z,37.76
2018-08-03T15:04:11.573Z,37.78
2018-08-03T15:06:39.463Z,37.78
2018-08-03T15:09:09.615Z,37.82
2018-08-03T15:11:37.488Z,37.95
2018-08-03T15:14:05.360Z,37.99
2018-08-03T15:16:33.107Z,38.01
2018-08-03T15:19:00.952Z,38.05
2018-08-03T15:21:28.824Z,38.02
2018-08-03T15:23:56.711Z,37.84
2018-08-03T15:26:24.516Z,37.90
2018-08-03T15:28:52.458Z,38.05
2018-08-03T15:31:20.324Z,38.09
2018-08-03T15:33:48.114Z,38.12
2018-08-03T15:36:16.019Z,38.11
2018-08-03T15:38:43.902Z,37.88
2018-08-03T15:41:11.669Z,37.75
2018-08-03T15:43:39.468Z,37.69
2018-08-03T15:46:07.276Z,37.62
2018-08-03T15:48:35.044Z,37.61
2018-08-03T15:51:02.916Z,37.62
2018-08-03T15:53:30.811Z,37.50
2018-08-03T15:55:58.659Z,37.46
2018-08-03T15:58:26.679Z,37.44
2018-08-03T16:00:54.505Z,37.38
2018-08-03T16:03:22.295Z,37.38
2018-08-03T16:05:50.200Z,37.33
2018-08-03T16:08:18.040Z,37.34
2018-08-03T16:10:46.087Z,37.28
2018-08-03T16:13:14.003Z,37.20
2018-08-03T16:15:41.815Z,37.15
2018-08-03T16:18:09.594Z,37.01
2018-08-03T16:20:37.521Z,36.99
2018-08-03T16:23:05.335Z,36.95
2018-08-03T16:25:33.108Z,36.88
2018-08-03T16:28:00.963Z,36.85
2018-08-03T16:30:28.913Z,36.74
2018-08-03T16:32:56.708Z,36.74
2018-08-03T16:35:24.543Z,36.68
2018-08-03T16:37:52.299Z,36.58
2018-08-03T16:40:20.211Z,36.55
2018-08-03T16:42:48.022Z,36.46
2018-08-03T16:45:15.811Z,36.49
2018-08-03T16:47:43.700Z,36.47
2018-08-03T16:50:11.595Z,36.26
2018-08-03T16:52:39.422Z,36.27
2018-08-03T16:55:07.259Z,36.25
2018-08-03T16:57:35.059Z,36.09
2018-08-03T17:00:03.475Z,36.06
2018-08-03T17:02:31.247Z,36.04
2018-08-03T17:04:59.031Z,36.03
2018-08-03T17:07:26.786Z,36.00
2018-08-03T17:09:54.671Z,35.94
2018-08-03T17:12:22.384Z,35.85
2018-08-03T17:14:50.243Z,35.87
2018-08-03T17:17:18.465Z,35.77
2018-08-03T17:19:46.314Z,35.70
2018-08-03T17:22:14.344Z,35.64
2018-08-03T17:24:42.243Z,35.54
2018-08-03T17:27:10.644Z,35.48
2018-08-03T17:29:38.616Z,35.46
2018-08-03T17:32:06.954Z,35.34
2018-08-03T17:37:07.872Z,35.21
2018-08-03T17:39:35.667Z,35.17
2018-08-03T17:42:03.531Z,35.13
2018-08-03T17:44:31.460Z,35.01
2018-08-03T17:46:59.183Z,34.87
2018-08-03T17:49:27.094Z,34.90
2018-08-03T17:51:54.977Z,34.77
2018-08-03T17:54:22.757Z,34.64
2018-08-03T17:56:50.615Z,34.61
2018-08-03T17:59:18.459Z,34.58
2018-08-03T18:01:46.211Z,34.50
2018-08-03T18:04:14.073Z,34.41
2018-08-03T18:06:41.900Z,34.32
2018-08-03T18:09:09.727Z,34.25
2018-08-03T18:11:37.638Z,34.15
2018-08-03T18:14:05.495Z,34.06
2018-08-03T18:16:33.567Z,33.89
2018-08-03T18:19:01.540Z,33.83
2018-08-03T18:21:29.352Z,33.77
2018-08-03T18:23:57.204Z,33.69
2018-08-03T18:26:25.091Z,33.55
2018-08-03T18:28:53.011Z,33.54
2018-08-03T18:31:20.876Z,33.47
2018-08-03T18:33:48.722Z,33.38
2018-08-03T18:36:16.512Z,33.26
2018-08-03T18:38:44.467Z,33.19
2018-08-03T18:41:12.259Z,33.12
2018-08-03T18:43:40.131Z,33.06
2018-08-03T18:46:07.949Z,32.91
2018-08-03T18:48:35.835Z,32.81
2018-08-03T18:51:03.774Z,32.66
2018-08-03T18:53:31.709Z,32.56
2018-08-03T18:55:59.510Z,32.39
2018-08-03T18:58:27.351Z,32.30
2018-08-03T19:00:55.524Z,32.29
2018-08-03T19:03:23.418Z,32.14
2018-08-03T19:05:51.239Z,32.10
2018-08-03T19:08:19.227Z,31.89
2018-08-03T19:10:47.567Z,31.78
2018-08-03T19:13:15.661Z,31.63
2018-08-03T19:15:43.537Z,31.49
2018-08-03T19:18:11.471Z,31.41
2018-08-03T19:20:39.513Z,31.32
2018-08-03T19:23:07.459Z,31.19
2018-08-03T19:25:35.298Z,31.08
2018-08-03T19:28:03.075Z,30.99
2018-08-03T19:30:31.316Z,31.00
2018-08-03T19:32:59.379Z,30.89
2018-08-03T19:35:27.435Z,30.75
2018-08-03T19:37:55.230Z,30.69
2018-08-03T19:40:23.112Z,30.62
2018-08-03T19:42:51.907Z,30.55
2018-08-03T19:45:19.730Z,30.55
2018-08-03T19:47:48.131Z,30.39
2018-08-03T19:50:15.867Z,30.22
2018-08-03T19:52:44.009Z,30.31
2018-08-03T19:55:11.974Z,30.13
2018-08-03T19:57:39.792Z,29.98
2018-08-03T20:00:10.978Z,29.90
2018-08-03T20:02:39.231Z,29.70
2018-08-03T20:05:12.160Z,29.62
2018-08-03T20:07:40.028Z,29.57
2018-08-03T20:10:08.313Z,29.54
2018-08-03T20:12:36.175Z,29.33
2018-08-03T20:15:04.934Z,29.29
2018-08-03T20:17:32.907Z,29.19
2018-08-03T20:20:00.745Z,29.22
2018-08-03T20:22:28.610Z,29.08
2018-08-03T20:24:56.477Z,29.10
2018-08-03T20:27:24.324Z,29.03
2018-08-03T20:29:52.147Z,28.96
2018-08-03T20:32:20.010Z,28.84
2018-08-03T20:34:47.857Z,28.82
2018-08-03T20:37:15.791Z,28.63
2018-08-03T20:39:43.679Z,28.48
2018-08-03T20:42:11.466Z,28.47
2018-08-03T20:44:39.325Z,28.30
2018-08-03T20:47:07.070Z,28.35
2018-08-03T20:49:34.926Z,28.29
2018-08-03T20:52:02.882Z,28.39
2018-08-03T20:54:30.679Z,28.31
2018-08-03T20:56:58.799Z,28.28
2018-08-03T20:59:26.628Z,28.20
2018-08-03T21:01:54.460Z,28.22
2018-08-03T21:04:22.329Z,28.14
2018-08-03T21:06:50.175Z,28.14
2018-08-03T21:09:17.968Z,27.97
2018-08-03T21:11:45.800Z,27.86
2018-08-03T21:14:13.585Z,27.80
2018-08-03T21:16:41.380Z,27.65
2018-08-03T21:19:09.250Z,27.64
2018-08-03T21:21:37.047Z,27.70
2018-08-03T21:24:05.550Z,27.72
2018-08-03T21:26:33.672Z,27.64
2018-08-03T21:29:01.544Z,27.62
2018-08-03T21:31:29.380Z,27.52
2018-08-03T21:33:57.472Z,27.46
2018-08-03T21:36:25.502Z,27.46
2018-08-03T21:38:53.294Z,27.25
2018-08-03T21:41:21.302Z,27.35
2018-08-03T21:43:49.090Z,27.25
2018-08-03T21:46:16.921Z,27.21
2018-08-03T21:48:44.731Z,27.04
2018-08-03T21:51:12.535Z,26.99
2018-08-03T21:53:40.350Z,26.90
2018-08-03T21:56:08.143Z,26.80
2018-08-03T21:58:35.943Z,26.80
2018-08-03T22:01:03.810Z,26.80
2018-08-03T22:03:31.713Z,26.77
2018-08-03T22:05:59.571Z,26.63
2018-08-03T22:08:27.526Z,26.62
2018-08-03T22:10:55.363Z,26.54
2018-08-03T22:13:23.199Z,26.50
2018-08-03T22:15:51.007Z,26.59
2018-08-03T22:18:18.931Z,26.44
2018-08-03T22:20:46.752Z,26.53
2018-08-03T22:23:14.555Z,26.48
2018-08-03T22:25:42.503Z,26.37
2018-08-03T22:28:10.355Z,26.35
2018-08-03T22:30:38.179Z,26.29
2018-08-03T22:33:06.050Z,26.21
2018-08-03T22:35:33.867Z,26.09
2018-08-03T22:38:01.701Z,26.08
2018-08-03T22:40:29.511Z,26.00
2018-08-03T22:42:57.384Z,26.15
2018-08-03T22:45:25.188Z,26.11
2018-08-03T22:47:53.934Z,26.08
2018-08-03T22:50:21.838Z,26.03
2018-08-03T22:52:49.756Z,26.00
2018-08-03T22:55:17.522Z,25.97
2018-08-03T22:57:45.311Z,25.85
2018-08-03T23:00:13.167Z,25.93
2018-08-03T23:02:40.978Z,25.83
2018-08-03T23:05:08.894Z,25.79
2018-08-03T23:07:36.697Z,25.72
2018-08-03T23:10:05.474Z,25.76
2018-08-03T23:12:33.322Z,25.71
2018-08-03T23:15:01.056Z,25.70
2018-08-03T23:17:28.845Z,25.71
2018-08-03T23:19:56.759Z,25.67
2018-08-03T23:22:24.588Z,25.65
2018-08-03T23:24:52.429Z,25.57
2018-08-03T23:27:20.179Z,25.61
2018-08-03T23:29:48.035Z,25.63
2018-08-03T23:32:15.786Z,25.59
2018-08-03T23:34:43.599Z,25.57
2018-08-03T23:37:11.374Z,25.56
2018-08-03T23:39:39.188Z,25.55
2018-08-03T23:42:06.970Z,25.46
2018-08-03T23:44:34.736Z,25.40
2018-08-03T23:47:02.818Z,25.35
2018-08-03T23:49:30.598Z,25.31
2018-08-03T23:51:58.467Z,25.34
2018-08-03T23:54:26.293Z,25.33
2018-08-03T23:56:54.155Z,25.26
2018-08-03T23:59:21.989Z,25.30
